sensor_id;sensor_type;location;lat;lon;timestamp;P1;durP1;ratioP1;P2;durP2;ratioP2
31270;SDS011;17904;47.420;9.310;2022-10-19T00:00:48;8.05;;;3.92;;
31270;SDS011;17904;47.420;9.310;2022-10-19T00:05:48;9.20;;;4.63;;
31270;SDS011;17904;47.420;9.310;2022-10-19T00:08:15;10.02;;;3.92;;
31270;SDS011;17904;47.420;9.310;2022-10-19T00:10:41;11.52;;;4.53;;
31270;SDS011;17904;47.420;9.310;2022-10-19T00:13:08;9.98;;;4.32;;
31270;SDS011;17904;47.420;9.310;2022-10-19T00:15:38;10.93;;;4.18;;
31270;SDS011;17904;47.420;9.310;2022-10-19T00:18:06;8.35;;;4.53;;
31270;SDS011;17904;47.420;9.310;2022-10-19T00:20:34;12.38;;;3.67;;
31270;SDS011;17904;47.420;9.310;2022-10-19T00:23:02;10.90;;;4.05;;
31270;SDS011;17904;47.420;9.310;2022-10-19T00:25:29;10.35;;;4.13;;
31270;SDS011;17904;47.420;9.310;2022-10-19T00:30:22;26.80;;;5.07;;
31270;SDS011;17904;47.420;9.310;2022-10-19T00:32:49;20.15;;;4.28;;
31270;SDS011;17904;47.420;9.310;2022-10-19T00:35:16;14.68;;;4.85;;
31270;SDS011;17904;47.420;9.310;2022-10-19T00:37:42;11.35;;;5.18;;
31270;SDS011;17904;47.420;9.310;2022-10-19T00:40:09;14.40;;;4.70;;
31270;SDS011;17904;47.420;9.310;2022-10-19T00:42:36;13.02;;;5.00;;
31270;SDS011;17904;47.420;9.310;2022-10-19T00:47:37;13.35;;;4.88;;
31270;SDS011;17904;47.420;9.310;2022-10-19T00:50:04;10.02;;;4.22;;
31270;SDS011;17904;47.420;9.310;2022-10-19T00:52:31;12.60;;;4.45;;
31270;SDS011;17904;47.420;9.310;2022-10-19T00:54:59;9.57;;;5.40;;
31270;SDS011;17904;47.420;9.310;2022-10-19T00:57:27;13.45;;;4.70;;
31270;SDS011;17904;47.420;9.310;2022-10-19T00:59:56;5.38;;;4.15;;
31270;SDS011;17904;47.420;9.310;2022-10-19T01:02:24;18.38;;;5.10;;
31270;SDS011;17904;47.420;9.310;2022-10-19T01:04:51;10.38;;;5.68;;
31270;SDS011;17904;47.420;9.310;2022-10-19T01:07:18;7.03;;;4.47;;
31270;SDS011;17904;47.420;9.310;2022-10-19T01:09:46;7.65;;;4.65;;
31270;SDS011;17904;47.420;9.310;2022-10-19T01:25:52;6.45;;;4.05;;
31270;SDS011;17904;47.420;9.310;2022-10-19T01:34:23;11.52;;;5.38;;
31270;SDS011;17904;47.420;9.310;2022-10-19T01:39:42;10.93;;;5.05;;
31270;SDS011;17904;47.420;9.310;2022-10-19T01:42:27;7.57;;;4.78;;
31270;SDS011;17904;47.420;9.310;2022-10-19T01:45:20;10.10;;;4.95;;
31270;SDS011;17904;47.420;9.310;2022-10-19T01:48:07;11.23;;;4.93;;
31270;SDS011;17904;47.420;9.310;2022-10-19T01:50:42;10.30;;;5.22;;
31270;SDS011;17904;47.420;9.310;2022-10-19T01:53:36;12.15;;;5.05;;
31270;SDS011;17904;47.420;9.310;2022-10-19T01:56:07;11.00;;;5.57;;
31270;SDS011;17904;47.420;9.310;2022-10-19T01:58:35;8.48;;;4.82;;
31270;SDS011;17904;47.420;9.310;2022-10-19T02:01:04;9.23;;;4.80;;
31270;SDS011;17904;47.420;9.310;2022-10-19T02:03:34;16.55;;;6.30;;
31270;SDS011;17904;47.420;9.310;2022-10-19T02:06:03;10.77;;;5.68;;
31270;SDS011;17904;47.420;9.310;2022-10-19T02:08:35;22.63;;;6.90;;
31270;SDS011;17904;47.420;9.310;2022-10-19T02:11:05;12.93;;;5.78;;
31270;SDS011;17904;47.420;9.310;2022-10-19T02:13:33;13.27;;;5.93;;
31270;SDS011;17904;47.420;9.310;2022-10-19T02:16:02;12.32;;;6.28;;
31270;SDS011;17904;47.420;9.310;2022-10-19T02:18:34;12.98;;;5.30;;
31270;SDS011;17904;47.420;9.310;2022-10-19T02:21:04;15.75;;;5.60;;
31270;SDS011;17904;47.420;9.310;2022-10-19T02:23:32;15.55;;;5.53;;
31270;SDS011;17904;47.420;9.310;2022-10-19T02:25:59;9.57;;;5.38;;
31270;SDS011;17904;47.420;9.310;2022-10-19T02:28:26;16.50;;;5.78;;
31270;SDS011;17904;47.420;9.310;2022-10-19T02:30:55;18.10;;;5.70;;
31270;SDS011;17904;47.420;9.310;2022-10-19T02:33:23;11.85;;;5.50;;
31270;SDS011;17904;47.420;9.310;2022-10-19T02:35:50;12.30;;;5.10;;
31270;SDS011;17904;47.420;9.310;2022-10-19T02:38:19;11.98;;;5.07;;
31270;SDS011;17904;47.420;9.310;2022-10-19T02:40:50;12.50;;;5.07;;
31270;SDS011;17904;47.420;9.310;2022-10-19T02:43:22;7.45;;;4.70;;
31270;SDS011;17904;47.420;9.310;2022-10-19T02:45:54;10.70;;;5.45;;
31270;SDS011;17904;47.420;9.310;2022-10-19T02:48:28;9.25;;;4.95;;
31270;SDS011;17904;47.420;9.310;2022-10-19T02:50:57;12.40;;;5.13;;
31270;SDS011;17904;47.420;9.310;2022-10-19T02:53:23;17.35;;;6.00;;
31270;SDS011;17904;47.420;9.310;2022-10-19T02:58:17;30.20;;;7.10;;
31270;SDS011;17904;47.420;9.310;2022-10-19T03:03:10;12.40;;;5.55;;
31270;SDS011;17904;47.420;9.310;2022-10-19T03:05:37;8.70;;;5.55;;
31270;SDS011;17904;47.420;9.310;2022-10-19T03:08:04;16.65;;;6.60;;
31270;SDS011;17904;47.420;9.310;2022-10-19T03:10:31;13.30;;;6.63;;
31270;SDS011;17904;47.420;9.310;2022-10-19T03:12:58;18.42;;;6.78;;
31270;SDS011;17904;47.420;9.310;2022-10-19T03:15:24;9.63;;;6.72;;
31270;SDS011;17904;47.420;9.310;2022-10-19T03:17:54;12.30;;;6.05;;
31270;SDS011;17904;47.420;9.310;2022-10-19T03:20:21;13.85;;;7.43;;
31270;SDS011;17904;47.420;9.310;2022-10-19T03:22:48;8.77;;;5.70;;
31270;SDS011;17904;47.420;9.310;2022-10-19T03:25:15;12.88;;;5.85;;
31270;SDS011;17904;47.420;9.310;2022-10-19T03:27:42;13.55;;;6.07;;
31270;SDS011;17904;47.420;9.310;2022-10-19T03:30:09;11.88;;;6.28;;
31270;SDS011;17904;47.420;9.310;2022-10-19T03:32:36;9.73;;;6.38;;
31270;SDS011;17904;47.420;9.310;2022-10-19T03:35:02;21.40;;;6.18;;
31270;SDS011;17904;47.420;9.310;2022-10-19T03:37:30;8.13;;;4.82;;
31270;SDS011;17904;47.420;9.310;2022-10-19T03:39:57;8.13;;;5.28;;
31270;SDS011;17904;47.420;9.310;2022-10-19T03:42:23;11.10;;;5.75;;
31270;SDS011;17904;47.420;9.310;2022-10-19T03:44:50;18.38;;;6.38;;
31270;SDS011;17904;47.420;9.310;2022-10-19T03:49:44;17.83;;;6.63;;
31270;SDS011;17904;47.420;9.310;2022-10-19T03:52:10;8.85;;;5.10;;
31270;SDS011;17904;47.420;9.310;2022-10-19T03:54:37;6.88;;;4.82;;
31270;SDS011;17904;47.420;9.310;2022-10-19T03:57:04;13.93;;;5.30;;
31270;SDS011;17904;47.420;9.310;2022-10-19T04:01:57;9.52;;;4.45;;
31270;SDS011;17904;47.420;9.310;2022-10-19T04:04:24;6.70;;;3.90;;
31270;SDS011;17904;47.420;9.310;2022-10-19T04:09:19;9.93;;;5.00;;
31270;SDS011;17904;47.420;9.310;2022-10-19T04:11:47;9.95;;;5.10;;
31270;SDS011;17904;47.420;9.310;2022-10-19T04:16:57;9.13;;;4.22;;
31270;SDS011;17904;47.420;9.310;2022-10-19T04:19:24;7.85;;;4.20;;
31270;SDS011;17904;47.420;9.310;2022-10-19T04:21:50;8.07;;;5.03;;
31270;SDS011;17904;47.420;9.310;2022-10-19T04:24:17;8.55;;;5.65;;
31270;SDS011;17904;47.420;9.310;2022-10-19T04:26:48;7.97;;;4.15;;
31270;SDS011;17904;47.420;9.310;2022-10-19T04:29:16;10.65;;;5.70;;
31270;SDS011;17904;47.420;9.310;2022-10-19T04:31:44;15.63;;;4.95;;
31270;SDS011;17904;47.420;9.310;2022-10-19T04:34:13;9.65;;;5.15;;
31270;SDS011;17904;47.420;9.310;2022-10-19T04:36:40;9.52;;;5.45;;
31270;SDS011;17904;47.420;9.310;2022-10-19T04:41:34;20.13;;;7.07;;
31270;SDS011;17904;47.420;9.310;2022-10-19T04:44:02;20.15;;;6.93;;
31270;SDS011;17904;47.420;9.310;2022-10-19T04:46:31;14.82;;;7.10;;
31270;SDS011;17904;47.420;9.310;2022-10-19T04:48:58;26.10;;;7.53;;
31270;SDS011;17904;47.420;9.310;2022-10-19T04:53:52;29.97;;;7.97;;
31270;SDS011;17904;47.420;9.310;2022-10-19T04:56:25;18.50;;;8.23;;
31270;SDS011;17904;47.420;9.310;2022-10-19T04:58:53;10.23;;;6.65;;
31270;SDS011;17904;47.420;9.310;2022-10-19T05:01:22;13.77;;;7.60;;
31270;SDS011;17904;47.420;9.310;2022-10-19T05:03:53;12.75;;;7.32;;
31270;SDS011;17904;47.420;9.310;2022-10-19T05:06:26;11.95;;;6.75;;
31270;SDS011;17904;47.420;9.310;2022-10-19T05:08:54;15.05;;;6.45;;
31270;SDS011;17904;47.420;9.310;2022-10-19T05:11:21;15.55;;;6.80;;
31270;SDS011;17904;47.420;9.310;2022-10-19T05:16:16;14.45;;;5.95;;
31270;SDS011;17904;47.420;9.310;2022-10-19T05:18:46;14.55;;;6.88;;
31270;SDS011;17904;47.420;9.310;2022-10-19T05:21:14;13.07;;;5.97;;
31270;SDS011;17904;47.420;9.310;2022-10-19T05:23:41;9.48;;;5.43;;
31270;SDS011;17904;47.420;9.310;2022-10-19T05:26:09;8.98;;;5.95;;
31270;SDS011;17904;47.420;9.310;2022-10-19T05:28:42;11.70;;;6.40;;
31270;SDS011;17904;47.420;9.310;2022-10-19T05:31:14;13.45;;;5.93;;
31270;SDS011;17904;47.420;9.310;2022-10-19T05:33:42;9.57;;;6.65;;
31270;SDS011;17904;47.420;9.310;2022-10-19T05:38:43;34.90;;;14.35;;
31270;SDS011;17904;47.420;9.310;2022-10-19T05:41:10;29.13;;;13.43;;
31270;SDS011;17904;47.420;9.310;2022-10-19T05:43:39;27.95;;;13.60;;
31270;SDS011;17904;47.420;9.310;2022-10-19T05:46:07;20.10;;;10.27;;
31270;SDS011;17904;47.420;9.310;2022-10-19T05:48:36;15.07;;;9.82;;
31270;SDS011;17904;47.420;9.310;2022-10-19T05:51:03;15.88;;;9.82;;
31270;SDS011;17904;47.420;9.310;2022-10-19T05:53:32;21.55;;;9.07;;
31270;SDS011;17904;47.420;9.310;2022-10-19T05:55:59;19.08;;;8.23;;
31270;SDS011;17904;47.420;9.310;2022-10-19T05:58:26;19.35;;;7.82;;
31270;SDS011;17904;47.420;9.310;2022-10-19T06:00:54;12.80;;;7.53;;
31270;SDS011;17904;47.420;9.310;2022-10-19T06:03:23;13.52;;;6.80;;
31270;SDS011;17904;47.420;9.310;2022-10-19T06:05:50;13.73;;;7.82;;
31270;SDS011;17904;47.420;9.310;2022-10-19T06:08:18;13.75;;;7.80;;
31270;SDS011;17904;47.420;9.310;2022-10-19T06:10:46;14.98;;;8.10;;
31270;SDS011;17904;47.420;9.310;2022-10-19T06:13:14;21.38;;;9.70;;
31270;SDS011;17904;47.420;9.310;2022-10-19T06:15:43;13.63;;;6.88;;
31270;SDS011;17904;47.420;9.310;2022-10-19T06:18:10;14.32;;;7.85;;
31270;SDS011;17904;47.420;9.310;2022-10-19T06:20:39;31.20;;;8.70;;
31270;SDS011;17904;47.420;9.310;2022-10-19T06:23:07;13.43;;;7.28;;
31270;SDS011;17904;47.420;9.310;2022-10-19T06:25:34;10.98;;;6.70;;
31270;SDS011;17904;47.420;9.310;2022-10-19T06:28:02;9.50;;;6.45;;
31270;SDS011;17904;47.420;9.310;2022-10-19T06:30:30;17.65;;;6.43;;
31270;SDS011;17904;47.420;9.310;2022-10-19T06:35:24;16.45;;;5.95;;
31270;SDS011;17904;47.420;9.310;2022-10-19T06:40:17;9.27;;;5.15;;
31270;SDS011;17904;47.420;9.310;2022-10-19T06:42:44;9.50;;;4.93;;
31270;SDS011;17904;47.420;9.310;2022-10-19T06:45:10;13.85;;;6.05;;
31270;SDS011;17904;47.420;9.310;2022-10-19T06:47:37;17.90;;;6.00;;
31270;SDS011;17904;47.420;9.310;2022-10-19T06:50:04;16.38;;;5.53;;
31270;SDS011;17904;47.420;9.310;2022-10-19T06:52:33;25.38;;;6.10;;
31270;SDS011;17904;47.420;9.310;2022-10-19T06:55:01;12.68;;;4.60;;
31270;SDS011;17904;47.420;9.310;2022-10-19T06:57:28;16.17;;;5.60;;
31270;SDS011;17904;47.420;9.310;2022-10-19T06:59:55;10.43;;;4.70;;
31270;SDS011;17904;47.420;9.310;2022-10-19T07:02:22;17.77;;;5.25;;
31270;SDS011;17904;47.420;9.310;2022-10-19T07:04:49;13.63;;;4.97;;
31270;SDS011;17904;47.420;9.310;2022-10-19T07:07:16;22.88;;;4.97;;
31270;SDS011;17904;47.420;9.310;2022-10-19T07:12:09;14.65;;;4.80;;
31270;SDS011;17904;47.420;9.310;2022-10-19T07:14:36;12.18;;;3.80;;
31270;SDS011;17904;47.420;9.310;2022-10-19T07:17:05;16.73;;;5.35;;
31270;SDS011;17904;47.420;9.310;2022-10-19T07:19:32;18.58;;;6.25;;
31270;SDS011;17904;47.420;9.310;2022-10-19T07:24:26;15.18;;;6.55;;
31270;SDS011;17904;47.420;9.310;2022-10-19T07:26:52;12.18;;;5.65;;
31270;SDS011;17904;47.420;9.310;2022-10-19T07:29:19;14.20;;;5.60;;
31270;SDS011;17904;47.420;9.310;2022-10-19T07:31:46;17.60;;;5.90;;
31270;SDS011;17904;47.420;9.310;2022-10-19T07:34:13;15.40;;;6.53;;
31270;SDS011;17904;47.420;9.310;2022-10-19T07:36:43;21.58;;;8.63;;
31270;SDS011;17904;47.420;9.310;2022-10-19T07:39:11;31.05;;;9.27;;
31270;SDS011;17904;47.420;9.310;2022-10-19T07:41:38;12.02;;;7.75;;
31270;SDS011;17904;47.420;9.310;2022-10-19T07:44:05;14.10;;;9.07;;
31270;SDS011;17904;47.420;9.310;2022-10-19T07:46:34;17.30;;;10.20;;
31270;SDS011;17904;47.420;9.310;2022-10-19T07:49:05;14.38;;;10.07;;
31270;SDS011;17904;47.420;9.310;2022-10-19T07:51:35;12.98;;;9.57;;
31270;SDS011;17904;47.420;9.310;2022-10-19T07:54:03;17.25;;;9.63;;
31270;SDS011;17904;47.420;9.310;2022-10-19T07:56:31;17.27;;;9.45;;
31270;SDS011;17904;47.420;9.310;2022-10-19T07:58:58;18.08;;;11.20;;
31270;SDS011;17904;47.420;9.310;2022-10-19T08:01:26;13.90;;;9.40;;
31270;SDS011;17904;47.420;9.310;2022-10-19T08:03:55;12.10;;;8.35;;
31270;SDS011;17904;47.420;9.310;2022-10-19T08:06:43;10.55;;;7.75;;
31270;SDS011;17904;47.420;9.310;2022-10-19T08:11:57;15.27;;;10.77;;
31270;SDS011;17904;47.420;9.310;2022-10-19T08:14:23;13.30;;;10.35;;
31270;SDS011;17904;47.420;9.310;2022-10-19T08:16:51;13.63;;;10.68;;
31270;SDS011;17904;47.420;9.310;2022-10-19T08:19:17;24.63;;;14.52;;
31270;SDS011;17904;47.420;9.310;2022-10-19T08:21:45;16.73;;;11.07;;
31270;SDS011;17904;47.420;9.310;2022-10-19T08:24:12;20.48;;;13.20;;
31270;SDS011;17904;47.420;9.310;2022-10-19T08:26:41;21.35;;;14.30;;
31270;SDS011;17904;47.420;9.310;2022-10-19T08:29:15;21.10;;;14.23;;
31270;SDS011;17904;47.420;9.310;2022-10-19T08:31:44;26.02;;;16.42;;
31270;SDS011;17904;47.420;9.310;2022-10-19T08:34:12;16.98;;;11.52;;
31270;SDS011;17904;47.420;9.310;2022-10-19T08:36:39;25.27;;;14.63;;
31270;SDS011;17904;47.420;9.310;2022-10-19T08:39:07;25.88;;;15.82;;
31270;SDS011;17904;47.420;9.310;2022-10-19T08:49:39;35.05;;;21.40;;
31270;SDS011;17904;47.420;9.310;2022-10-19T08:52:10;36.80;;;20.50;;
31270;SDS011;17904;47.420;9.310;2022-10-19T08:54:42;23.10;;;17.88;;
31270;SDS011;17904;47.420;9.310;2022-10-19T08:57:24;24.27;;;16.38;;
31270;SDS011;17904;47.420;9.310;2022-10-19T09:02:57;28.42;;;17.73;;
31270;SDS011;17904;47.420;9.310;2022-10-19T09:08:30;28.10;;;20.00;;
31270;SDS011;17904;47.420;9.310;2022-10-19T09:10:59;31.30;;;19.98;;
31270;SDS011;17904;47.420;9.310;2022-10-19T09:16:16;28.02;;;18.38;;
31270;SDS011;17904;47.420;9.310;2022-10-19T09:18:44;28.52;;;19.92;;
31270;SDS011;17904;47.420;9.310;2022-10-19T09:21:19;30.48;;;18.92;;
31270;SDS011;17904;47.420;9.310;2022-10-19T09:26:56;32.45;;;21.08;;
31270;SDS011;17904;47.420;9.310;2022-10-19T09:29:26;31.02;;;20.20;;
31270;SDS011;17904;47.420;9.310;2022-10-19T09:32:03;36.47;;;22.83;;
31270;SDS011;17904;47.420;9.310;2022-10-19T09:34:36;29.13;;;18.25;;
31270;SDS011;17904;47.420;9.310;2022-10-19T09:37:08;26.23;;;16.65;;
31270;SDS011;17904;47.420;9.310;2022-10-19T09:39:48;28.40;;;18.42;;
31270;SDS011;17904;47.420;9.310;2022-10-19T09:42:27;25.85;;;17.90;;
31270;SDS011;17904;47.420;9.310;2022-10-19T09:44:59;22.92;;;17.40;;
31270;SDS011;17904;47.420;9.310;2022-10-19T09:47:37;22.38;;;16.70;;
31270;SDS011;17904;47.420;9.310;2022-10-19T09:50:16;20.95;;;15.05;;
31270;SDS011;17904;47.420;9.310;2022-10-19T09:53:15;17.80;;;14.18;;
31270;SDS011;17904;47.420;9.310;2022-10-19T09:55:44;22.38;;;15.70;;
31270;SDS011;17904;47.420;9.310;2022-10-19T09:58:17;28.75;;;18.30;;
31270;SDS011;17904;47.420;9.310;2022-10-19T10:03:45;29.45;;;18.08;;
31270;SDS011;17904;47.420;9.310;2022-10-19T10:06:06;22.50;;;16.95;;
31270;SDS011;17904;47.420;9.310;2022-10-19T10:08:36;26.85;;;17.85;;
31270;SDS011;17904;47.420;9.310;2022-10-19T10:11:12;24.98;;;16.27;;
31270;SDS011;17904;47.420;9.310;2022-10-19T10:13:51;26.38;;;17.58;;
31270;SDS011;17904;47.420;9.310;2022-10-19T10:16:19;20.27;;;14.40;;
31270;SDS011;17904;47.420;9.310;2022-10-19T10:21:26;26.87;;;18.20;;
31270;SDS011;17904;47.420;9.310;2022-10-19T10:23:58;25.52;;;17.13;;
31270;SDS011;17904;47.420;9.310;2022-10-19T10:26:27;25.27;;;17.75;;
31270;SDS011;17904;47.420;9.310;2022-10-19T10:31:26;24.90;;;16.83;;
31270;SDS011;17904;47.420;9.310;2022-10-19T10:33:58;20.80;;;15.93;;
31270;SDS011;17904;47.420;9.310;2022-10-19T10:36:50;21.60;;;15.50;;
31270;SDS011;17904;47.420;9.310;2022-10-19T10:39:19;23.08;;;16.35;;
31270;SDS011;17904;47.420;9.310;2022-10-19T10:41:45;24.92;;;15.45;;
31270;SDS011;17904;47.420;9.310;2022-10-19T10:44:16;24.98;;;17.90;;
31270;SDS011;17904;47.420;9.310;2022-10-19T10:47:05;27.10;;;15.77;;
31270;SDS011;17904;47.420;9.310;2022-10-19T10:49:39;27.58;;;16.95;;
31270;SDS011;17904;47.420;9.310;2022-10-19T10:52:11;21.50;;;14.88;;
31270;SDS011;17904;47.420;9.310;2022-10-19T10:54:39;17.90;;;12.50;;
31270;SDS011;17904;47.420;9.310;2022-10-19T10:57:22;19.27;;;12.93;;
31270;SDS011;17904;47.420;9.310;2022-10-19T10:59:54;25.77;;;15.07;;
31270;SDS011;17904;47.420;9.310;2022-10-19T11:02:56;19.13;;;14.02;;
31270;SDS011;17904;47.420;9.310;2022-10-19T11:05:40;20.60;;;14.00;;
31270;SDS011;17904;47.420;9.310;2022-10-19T11:13:49;16.88;;;12.50;;
31270;SDS011;17904;47.420;9.310;2022-10-19T11:16:26;18.88;;;11.75;;
31270;SDS011;17904;47.420;9.310;2022-10-19T11:21:55;19.95;;;12.23;;
31270;SDS011;17904;47.420;9.310;2022-10-19T11:27:36;22.25;;;11.90;;
31270;SDS011;17904;47.420;9.310;2022-10-19T11:30:16;18.25;;;13.50;;
31270;SDS011;17904;47.420;9.310;2022-10-19T11:46:41;14.55;;;8.45;;
31270;SDS011;17904;47.420;9.310;2022-10-19T11:55:57;16.70;;;8.40;;
31270;SDS011;17904;47.420;9.310;2022-10-19T12:01:11;13.00;;;8.40;;
31270;SDS011;17904;47.420;9.310;2022-10-19T12:14:40;13.27;;;7.55;;
31270;SDS011;17904;47.420;9.310;2022-10-19T12:17:13;14.32;;;7.55;;
31270;SDS011;17904;47.420;9.310;2022-10-19T12:19:46;14.80;;;8.32;;
31270;SDS011;17904;47.420;9.310;2022-10-19T12:22:18;13.50;;;7.95;;
31270;SDS011;17904;47.420;9.310;2022-10-19T12:24:48;15.10;;;9.20;;
31270;SDS011;17904;47.420;9.310;2022-10-19T12:27:16;14.05;;;7.40;;
31270;SDS011;17904;47.420;9.310;2022-10-19T12:29:49;14.57;;;8.35;;
31270;SDS011;17904;47.420;9.310;2022-10-19T12:32:18;13.10;;;7.55;;
31270;SDS011;17904;47.420;9.310;2022-10-19T12:34:50;14.23;;;8.45;;
31270;SDS011;17904;47.420;9.310;2022-10-19T12:37:40;15.05;;;6.93;;
31270;SDS011;17904;47.420;9.310;2022-10-19T12:40:22;12.23;;;7.75;;
31270;SDS011;17904;47.420;9.310;2022-10-19T12:43:06;16.38;;;7.30;;
31270;SDS011;17904;47.420;9.310;2022-10-19T12:45:34;20.95;;;9.10;;
31270;SDS011;17904;47.420;9.310;2022-10-19T12:58:33;16.63;;;8.95;;
31270;SDS011;17904;47.420;9.310;2022-10-19T13:04:06;13.25;;;5.68;;
31270;SDS011;17904;47.420;9.310;2022-10-19T13:06:42;9.82;;;5.55;;
31270;SDS011;17904;47.420;9.310;2022-10-19T13:25:29;15.27;;;9.30;;
31270;SDS011;17904;47.420;9.310;2022-10-19T13:41:13;16.35;;;10.10;;
31270;SDS011;17904;47.420;9.310;2022-10-19T13:51:47;18.38;;;12.10;;
31270;SDS011;17904;47.420;9.310;2022-10-19T14:02:44;13.75;;;11.38;;
31270;SDS011;17904;47.420;9.310;2022-10-19T14:11:05;17.25;;;12.55;;
31270;SDS011;17904;47.420;9.310;2022-10-19T14:13:42;13.60;;;11.57;;
31270;SDS011;17904;47.420;9.310;2022-10-19T14:16:16;18.27;;;14.23;;
31270;SDS011;17904;47.420;9.310;2022-10-19T14:18:53;16.48;;;13.35;;
31270;SDS011;17904;47.420;9.310;2022-10-19T14:21:33;20.67;;;11.32;;
31270;SDS011;17904;47.420;9.310;2022-10-19T14:24:02;12.23;;;10.60;;
31270;SDS011;17904;47.420;9.310;2022-10-19T14:26:45;14.75;;;11.45;;
31270;SDS011;17904;47.420;9.310;2022-10-19T14:29:12;16.05;;;11.82;;
31270;SDS011;17904;47.420;9.310;2022-10-19T14:31:39;15.77;;;10.25;;
31270;SDS011;17904;47.420;9.310;2022-10-19T14:34:06;15.85;;;11.90;;
31270;SDS011;17904;47.420;9.310;2022-10-19T14:36:38;12.55;;;10.32;;
31270;SDS011;17904;47.420;9.310;2022-10-19T14:42:01;15.75;;;12.95;;
31270;SDS011;17904;47.420;9.310;2022-10-19T14:47:15;16.85;;;11.15;;
31270;SDS011;17904;47.420;9.310;2022-10-19T14:49:51;15.35;;;10.27;;
31270;SDS011;17904;47.420;9.310;2022-10-19T14:52:20;20.10;;;10.98;;
31270;SDS011;17904;47.420;9.310;2022-10-19T14:54:58;13.65;;;10.95;;
31270;SDS011;17904;47.420;9.310;2022-10-19T14:57:39;10.02;;;8.20;;
31270;SDS011;17904;47.420;9.310;2022-10-19T15:00:16;21.90;;;11.82;;
31270;SDS011;17904;47.420;9.310;2022-10-19T15:02:56;13.07;;;9.95;;
31270;SDS011;17904;47.420;9.310;2022-10-19T15:05:30;17.60;;;11.18;;
31270;SDS011;17904;47.420;9.310;2022-10-19T15:08:06;18.30;;;10.65;;
31270;SDS011;17904;47.420;9.310;2022-10-19T15:10:42;15.80;;;9.95;;
31270;SDS011;17904;47.420;9.310;2022-10-19T15:13:21;16.02;;;10.18;;
31270;SDS011;17904;47.420;9.310;2022-10-19T15:15:52;18.38;;;11.93;;
31270;SDS011;17904;47.420;9.310;2022-10-19T15:18:24;13.20;;;9.55;;
31270;SDS011;17904;47.420;9.310;2022-10-19T15:21:13;16.17;;;11.40;;
31270;SDS011;17904;47.420;9.310;2022-10-19T15:23:44;13.48;;;10.82;;
31270;SDS011;17904;47.420;9.310;2022-10-19T15:28:52;17.10;;;9.25;;
31270;SDS011;17904;47.420;9.310;2022-10-19T15:31:23;11.57;;;9.32;;
31270;SDS011;17904;47.420;9.310;2022-10-19T15:33:56;16.42;;;10.65;;
31270;SDS011;17904;47.420;9.310;2022-10-19T15:36:25;17.80;;;10.63;;
31270;SDS011;17904;47.420;9.310;2022-10-19T15:41:43;8.40;;;7.05;;
31270;SDS011;17904;47.420;9.310;2022-10-19T15:44:33;9.10;;;6.95;;
31270;SDS011;17904;47.420;9.310;2022-10-19T15:54:45;28.60;;;9.73;;
31270;SDS011;17904;47.420;9.310;2022-10-19T16:00:09;13.57;;;8.77;;
31270;SDS011;17904;47.420;9.310;2022-10-19T16:02:37;11.88;;;7.50;;
31270;SDS011;17904;47.420;9.310;2022-10-19T16:05:04;8.00;;;7.07;;
31270;SDS011;17904;47.420;9.310;2022-10-19T16:07:37;11.00;;;8.93;;
31270;SDS011;17904;47.420;9.310;2022-10-19T16:10:05;11.93;;;7.65;;
31270;SDS011;17904;47.420;9.310;2022-10-19T16:12:33;9.70;;;7.60;;
31270;SDS011;17904;47.420;9.310;2022-10-19T16:17:26;16.10;;;11.27;;
31270;SDS011;17904;47.420;9.310;2022-10-19T16:22:20;16.83;;;10.30;;
31270;SDS011;17904;47.420;9.310;2022-10-19T16:27:13;13.55;;;8.80;;
31270;SDS011;17904;47.420;9.310;2022-10-19T16:29:41;38.38;;;10.93;;
31270;SDS011;17904;47.420;9.310;2022-10-19T16:32:09;16.33;;;8.05;;
31270;SDS011;17904;47.420;9.310;2022-10-19T16:34:36;17.00;;;10.13;;
31270;SDS011;17904;47.420;9.310;2022-10-19T16:37:03;15.15;;;9.25;;
31270;SDS011;17904;47.420;9.310;2022-10-19T16:39:32;11.95;;;8.18;;
31270;SDS011;17904;47.420;9.310;2022-10-19T16:41:59;13.30;;;8.18;;
31270;SDS011;17904;47.420;9.310;2022-10-19T16:44:26;15.63;;;10.63;;
31270;SDS011;17904;47.420;9.310;2022-10-19T16:46:55;18.48;;;10.88;;
31270;SDS011;17904;47.420;9.310;2022-10-19T16:49:22;17.42;;;9.57;;
31270;SDS011;17904;47.420;9.310;2022-10-19T16:51:49;18.02;;;9.32;;
31270;SDS011;17904;47.420;9.310;2022-10-19T16:54:21;21.13;;;12.00;;
31270;SDS011;17904;47.420;9.310;2022-10-19T16:56:48;18.88;;;12.32;;
31270;SDS011;17904;47.420;9.310;2022-10-19T16:59:16;17.73;;;11.45;;
31270;SDS011;17904;47.420;9.310;2022-10-19T17:01:44;18.92;;;11.82;;
31270;SDS011;17904;47.420;9.310;2022-10-19T17:04:12;21.55;;;10.18;;
31270;SDS011;17904;47.420;9.310;2022-10-19T17:06:40;19.00;;;11.18;;
31270;SDS011;17904;47.420;9.310;2022-10-19T17:09:07;18.17;;;11.57;;
31270;SDS011;17904;47.420;9.310;2022-10-19T17:11:54;17.17;;;11.48;;
31270;SDS011;17904;47.420;9.310;2022-10-19T17:14:21;20.02;;;11.85;;
31270;SDS011;17904;47.420;9.310;2022-10-19T17:16:47;20.38;;;12.82;;
31270;SDS011;17904;47.420;9.310;2022-10-19T17:21:41;18.65;;;11.60;;
31270;SDS011;17904;47.420;9.310;2022-10-19T17:24:11;18.40;;;11.80;;
31270;SDS011;17904;47.420;9.310;2022-10-19T17:26:46;13.30;;;9.23;;
31270;SDS011;17904;47.420;9.310;2022-10-19T17:29:14;15.35;;;10.93;;
31270;SDS011;17904;47.420;9.310;2022-10-19T17:31:40;11.15;;;8.27;;
31270;SDS011;17904;47.420;9.310;2022-10-19T17:34:08;17.75;;;9.57;;
31270;SDS011;17904;47.420;9.310;2022-10-19T17:36:36;16.58;;;8.07;;
31270;SDS011;17904;47.420;9.310;2022-10-19T17:39:13;20.92;;;11.60;;
31270;SDS011;17904;47.420;9.310;2022-10-19T17:41:43;16.77;;;9.30;;
31270;SDS011;17904;47.420;9.310;2022-10-19T17:44:11;16.95;;;11.85;;
31270;SDS011;17904;47.420;9.310;2022-10-19T17:46:38;22.30;;;15.15;;
31270;SDS011;17904;47.420;9.310;2022-10-19T17:49:05;17.25;;;12.95;;
31270;SDS011;17904;47.420;9.310;2022-10-19T17:51:32;17.52;;;11.98;;
31270;SDS011;17904;47.420;9.310;2022-10-19T17:54:01;20.13;;;13.65;;
31270;SDS011;17904;47.420;9.310;2022-10-19T17:56:30;17.00;;;12.10;;
31270;SDS011;17904;47.420;9.310;2022-10-19T17:58:57;20.85;;;12.02;;
31270;SDS011;17904;47.420;9.310;2022-10-19T18:01:24;25.38;;;12.55;;
31270;SDS011;17904;47.420;9.310;2022-10-19T18:03:52;22.15;;;11.75;;
31270;SDS011;17904;47.420;9.310;2022-10-19T18:06:23;21.92;;;13.57;;
31270;SDS011;17904;47.420;9.310;2022-10-19T18:08:56;19.08;;;13.57;;
31270;SDS011;17904;47.420;9.310;2022-10-19T18:11:31;23.88;;;14.88;;
31270;SDS011;17904;47.420;9.310;2022-10-19T18:14:04;22.98;;;12.80;;
31270;SDS011;17904;47.420;9.310;2022-10-19T18:16:32;22.20;;;14.13;;
31270;SDS011;17904;47.420;9.310;2022-10-19T18:19:04;17.05;;;13.13;;
31270;SDS011;17904;47.420;9.310;2022-10-19T18:21:33;19.38;;;12.93;;
31270;SDS011;17904;47.420;9.310;2022-10-19T18:24:04;17.45;;;12.65;;
31270;SDS011;17904;47.420;9.310;2022-10-19T18:26:34;19.42;;;12.68;;
31270;SDS011;17904;47.420;9.310;2022-10-19T18:29:07;18.63;;;13.27;;
31270;SDS011;17904;47.420;9.310;2022-10-19T18:31:37;21.35;;;15.27;;
31270;SDS011;17904;47.420;9.310;2022-10-19T18:34:05;22.25;;;14.45;;
31270;SDS011;17904;47.420;9.310;2022-10-19T18:36:33;23.80;;;15.20;;
31270;SDS011;17904;47.420;9.310;2022-10-19T18:39:00;23.52;;;16.27;;
31270;SDS011;17904;47.420;9.310;2022-10-19T18:41:29;16.98;;;13.75;;
31270;SDS011;17904;47.420;9.310;2022-10-19T18:43:59;27.85;;;16.55;;
31270;SDS011;17904;47.420;9.310;2022-10-19T18:46:29;20.13;;;15.10;;